createdAt,value
2023-01-27T00:00:53.336Z,99632.81
2023-01-27T00:03:21.370Z,99611.25
2023-01-27T00:05:49.369Z,99618.38
2023-01-27T00:08:17.434Z,99615.00
2023-01-27T00:10:45.451Z,99617.41
2023-01-27T00:13:29.720Z,99614.91
2023-01-27T00:15:57.515Z,99612.47
2023-01-27T00:18:26.140Z,99602.25
2023-01-27T00:21:12.149Z,99606.00
2023-01-27T00:23:58.252Z,99594.69
2023-01-27T00:26:26.212Z,99602.03
2023-01-27T00:28:54.227Z,99610.19
2023-01-27T00:31:40.482Z,99613.06
2023-01-27T00:34:11.478Z,99612.47
2023-01-27T00:36:43.624Z,99614.28
2023-01-27T00:39:12.332Z,99611.16
2023-01-27T00:41:40.784Z,99621.84
2023-01-27T00:44:13.588Z,99621.84
2023-01-27T00:46:45.122Z,99622.28
2023-01-27T00:49:13.905Z,99618.09
2023-01-27T00:51:42.161Z,99608.59
2023-01-27T00:54:10.036Z,99606.91
2023-01-27T00:56:38.678Z,99605.13
2023-01-27T00:59:06.777Z,99610.53
2023-01-27T01:01:34.937Z,99605.94
2023-01-27T01:04:02.785Z,99614.00
2023-01-27T01:06:31.939Z,99613.28
2023-01-27T01:08:59.815Z,99612.66
2023-01-27T01:11:27.896Z,99598.22
2023-01-27T01:13:56.643Z,99611.69
2023-01-27T01:16:25.101Z,99603.75
2023-01-27T01:18:53.292Z,99597.88
2023-01-27T01:21:21.679Z,99597.88
2023-01-27T01:23:49.718Z,99600.59
2023-01-27T01:26:17.981Z,99596.38
2023-01-27T01:28:46.300Z,99592.91
2023-01-27T01:31:16.166Z,99585.94
2023-01-27T01:33:44.252Z,99578.53
2023-01-27T01:36:14.811Z,99587.06
2023-01-27T01:38:42.698Z,99575.53
2023-01-27T01:41:13.522Z,99579.97
2023-01-27T01:43:41.442Z,99563.25
2023-01-27T01:46:12.752Z,99565.66
2023-01-27T01:48:53.554Z,99582.50
2023-01-27T01:51:22.452Z,99579.72
2023-01-27T01:54:12.130Z,99584.28
2023-01-27T01:56:47.841Z,99581.78
2023-01-27T01:59:20.525Z,99580.22
2023-01-27T02:01:48.476Z,99579.44
2023-01-27T02:04:19.097Z,99581.50
2023-01-27T02:07:10.140Z,99582.56
2023-01-27T02:09:38.503Z,99584.38
2023-01-27T02:12:06.672Z,99579.09
2023-01-27T02:14:37.636Z,99577.16
2023-01-27T02:17:05.583Z,99571.63
2023-01-27T02:19:42.365Z,99566.75
2023-01-27T02:22:11.927Z,99555.94
2023-01-27T02:24:42.311Z,99566.03
2023-01-27T02:27:10.363Z,99565.56
2023-01-27T02:29:38.201Z,99559.78
2023-01-27T02:32:06.391Z,99561.22
2023-01-27T02:34:35.333Z,99566.78
2023-01-27T02:37:06.652Z,99561.00
2023-01-27T02:39:38.393Z,99562.47
2023-01-27T02:42:07.023Z,99561.13
2023-01-27T02:44:35.860Z,99571.84
2023-01-27T02:47:05.541Z,99568.69
2023-01-27T02:49:33.613Z,99573.25
2023-01-27T02:52:03.091Z,99562.06
2023-01-27T02:54:30.867Z,99574.59
2023-01-27T02:56:59.133Z,99560.47
2023-01-27T02:59:30.249Z,99561.16
2023-01-27T03:01:58.235Z,99560.03
2023-01-27T03:04:29.393Z,99556.84
2023-01-27T03:06:58.718Z,99564.22
2023-01-27T03:09:28.365Z,99560.03
2023-01-27T03:12:14.566Z,99548.84
2023-01-27T03:15:00.472Z,99535.44
2023-01-27T03:17:47.082Z,99541.84
2023-01-27T03:20:15.180Z,99543.59
2023-01-27T03:22:43.204Z,99535.97
2023-01-27T03:25:13.674Z,99529.16
2023-01-27T03:27:42.623Z,99531.13
2023-01-27T03:30:25.874Z,99526.09
2023-01-27T03:33:04.452Z,99525.41
2023-01-27T03:36:09.611Z,99525.94
2023-01-27T03:39:01.745Z,99527.19
2023-01-27T03:41:48.255Z,99520.06
2023-01-27T03:44:35.233Z,99522.56
2023-01-27T03:47:03.121Z,99511.31
2023-01-27T03:49:30.934Z,99503.75
2023-01-27T03:51:59.386Z,99504.56
2023-01-27T03:54:27.310Z,99497.50
2023-01-27T03:56:55.065Z,99490.06
2023-01-27T03:59:23.214Z,99502.81
2023-01-27T04:01:51.158Z,99497.03
2023-01-27T04:04:37.630Z,99497.47
2023-01-27T04:07:05.477Z,99500.53
2023-01-27T04:09:35.339Z,99492.69
2023-01-27T04:12:05.161Z,99502.19
2023-01-27T04:14:42.383Z,99491.66
2023-01-27T04:17:17.859Z,99504.91
2023-01-27T04:19:46.335Z,99501.00
2023-01-27T04:22:16.239Z,99505.19
2023-01-27T04:24:44.129Z,99516.38
2023-01-27T04:27:13.441Z,99505.94
2023-01-27T04:29:41.880Z,99503.53
2023-01-27T04:32:10.917Z,99491.59
2023-01-27T04:34:38.995Z,99492.06
2023-01-27T04:37:07.660Z,99500.84
2023-01-27T04:39:35.785Z,99496.41
2023-01-27T04:42:03.729Z,99495.34
2023-01-27T04:44:31.620Z,99488.81
2023-01-27T04:46:59.640Z,99496.19
2023-01-27T04:49:27.595Z,99490.69
2023-01-27T04:51:56.092Z,99498.22
2023-01-27T04:54:23.921Z,99500.81
2023-01-27T04:56:59.999Z,99500.09
2023-01-27T04:59:28.202Z,99506.63
2023-01-27T05:01:56.075Z,99500.00
2023-01-27T05:04:24.048Z,99491.84
2023-01-27T05:06:51.793Z,99495.50
2023-01-27T05:09:19.685Z,99485.03
2023-01-27T05:11:47.521Z,99491.56
2023-01-27T05:14:15.430Z,99481.94
2023-01-27T05:16:43.357Z,99494.13
2023-01-27T05:19:11.333Z,99477.47
2023-01-27T05:21:39.230Z,99484.69
2023-01-27T05:24:07.148Z,99484.53
2023-01-27T05:26:35.114Z,99475.53
2023-01-27T05:29:02.851Z,99460.00
2023-01-27T05:31:32.137Z,99468.50
2023-01-27T05:34:00.791Z,99463.84
2023-01-27T05:36:28.768Z,99460.19
2023-01-27T05:38:56.642Z,99457.31
2023-01-27T05:41:24.432Z,99453.66
2023-01-27T05:43:53.648Z,99467.34
2023-01-27T05:46:26.376Z,99463.28
2023-01-27T05:48:55.444Z,99450.94
2023-01-27T05:51:24.423Z,99464.59
2023-01-27T05:53:52.348Z,99450.56
2023-01-27T05:56:20.393Z,99445.41
2023-01-27T05:58:48.296Z,99450.91
2023-01-27T06:01:23.680Z,99439.00
2023-01-27T06:03:51.482Z,99422.84
2023-01-27T06:06:20.469Z,99432.00
2023-01-27T06:08:48.421Z,99425.97
2023-01-27T06:11:16.914Z,99432.84
2023-01-27T06:13:44.709Z,99424.81
2023-01-27T06:16:13.900Z,99434.81
2023-01-27T06:18:41.753Z,99415.28
2023-01-27T06:21:10.684Z,99414.28
2023-01-27T06:23:39.216Z,99418.72
2023-01-27T06:26:12.852Z,99416.84
2023-01-27T06:28:40.695Z,99408.03
2023-01-27T06:31:10.219Z,99390.19
2023-01-27T06:33:38.214Z,99397.34
2023-01-27T06:36:07.957Z,99397.78
2023-01-27T06:38:35.919Z,99388.97
2023-01-27T06:41:03.977Z,99388.78
2023-01-27T06:43:31.990Z,99360.44
2023-01-27T06:46:00.072Z,99376.31
2023-01-27T06:48:28.096Z,99382.28
2023-01-27T06:50:56.210Z,99380.41
2023-01-27T06:53:24.059Z,99379.19
2023-01-27T06:55:59.146Z,99375.69
2023-01-27T06:58:27.267Z,99376.00
2023-01-27T07:00:55.580Z,99371.66
2023-01-27T07:03:23.593Z,99360.09
2023-01-27T07:05:51.437Z,99366.06
2023-01-27T07:08:19.305Z,99359.84
2023-01-27T07:10:47.017Z,99358.16
2023-01-27T07:13:15.277Z,99347.44
2023-01-27T07:15:45.823Z,99348.63
2023-01-27T07:18:14.672Z,99336.97
2023-01-27T07:20:42.528Z,99347.66
2023-01-27T07:23:10.821Z,99340.63
2023-01-27T07:25:38.580Z,99331.78
2023-01-27T07:28:06.501Z,99317.38
2023-01-27T07:30:34.637Z,99327.34
2023-01-27T07:33:12.201Z,99318.00
2023-01-27T07:35:40.043Z,99316.94
2023-01-27T07:38:08.037Z,99319.09
2023-01-27T07:40:36.267Z,99316.88
2023-01-27T07:43:04.449Z,99312.41
2023-01-27T07:45:35.119Z,99309.38
2023-01-27T07:48:03.740Z,99307.81
2023-01-27T07:50:31.740Z,99315.38
2023-01-27T07:53:01.438Z,99326.03
2023-01-27T07:55:29.719Z,99320.03
2023-01-27T07:57:57.867Z,99320.31
2023-01-27T08:00:26.121Z,99328.59
2023-01-27T08:02:54.750Z,99328.59
2023-01-27T08:05:25.569Z,99318.13
2023-01-27T08:07:54.098Z,99318.75
2023-01-27T08:10:22.081Z,99335.16
2023-01-27T08:12:50.182Z,99322.91
2023-01-27T08:15:19.239Z,99315.53
2023-01-27T08:17:56.972Z,99308.84
2023-01-27T08:20:25.751Z,99321.09
2023-01-27T08:22:53.729Z,99330.50
2023-01-27T08:25:21.576Z,99329.59
2023-01-27T08:27:53.165Z,99319.53
2023-01-27T08:30:21.292Z,99333.13
2023-01-27T08:32:49.206Z,99322.25
2023-01-27T08:35:17.153Z,99332.78
2023-01-27T08:37:46.273Z,99333.25
2023-01-27T08:40:15.894Z,99326.03
2023-01-27T08:42:43.723Z,99327.28
2023-01-27T08:45:12.573Z,99317.25
2023-01-27T08:47:40.470Z,99322.72
2023-01-27T08:50:09.306Z,99328.31
2023-01-27T08:52:37.163Z,99315.06
2023-01-27T08:55:05.193Z,99301.38
2023-01-27T08:57:34.699Z,99307.13
2023-01-27T09:00:05.680Z,99296.78
2023-01-27T09:02:33.862Z,99298.50
2023-01-27T09:05:01.738Z,99309.41
2023-01-27T09:07:29.488Z,99315.16
2023-01-27T09:10:12.619Z,99316.75
2023-01-27T09:12:42.092Z,99317.88
2023-01-27T09:15:10.444Z,99301.19
2023-01-27T09:17:38.243Z,99311.28
2023-01-27T09:20:06.590Z,99307.94
2023-01-27T09:22:34.652Z,99282.09
2023-01-27T09:25:02.665Z,99300.56
2023-01-27T09:27:39.077Z,99289.09
2023-01-27T09:30:08.827Z,99286.59
2023-01-27T09:32:36.674Z,99291.59
2023-01-27T09:35:04.713Z,99283.06
2023-01-27T09:37:34.607Z,99292.84
2023-01-27T09:40:04.613Z,99301.81
2023-01-27T09:42:42.634Z,99303.78
2023-01-27T09:45:48.746Z,99293.44
2023-01-27T09:48:23.318Z,99293.03
2023-01-27T09:51:32.771Z,99287.19
2023-01-27T09:54:22.089Z,99298.06
2023-01-27T09:57:01.041Z,99287.44
2023-01-27T09:59:47.491Z,99289.94
2023-01-27T10:02:24.278Z,99278.50
2023-01-27T10:05:21.583Z,99264.13
2023-01-27T10:08:13.919Z,99263.13
2023-01-27T10:10:47.922Z,99260.72
2023-01-27T10:13:22.104Z,99275.00
2023-01-27T10:15:53.381Z,99282.56
2023-01-27T10:18:39.346Z,99274.34
2023-01-27T10:21:22.506Z,99264.97
2023-01-27T10:24:07.038Z,99267.22
2023-01-27T10:26:50.437Z,99271.56
2023-01-27T10:29:47.668Z,99268.47
2023-01-27T10:32:30.748Z,99268.22
2023-01-27T10:35:21.366Z,99265.97
2023-01-27T10:37:54.882Z,99262.22
2023-01-27T10:40:47.812Z,99261.22
2023-01-27T10:43:34.339Z,99259.28
2023-01-27T10:46:38.932Z,99253.28
2023-01-27T10:49:12.771Z,99247.28
2023-01-27T10:51:46.432Z,99247.56
2023-01-27T10:54:45.295Z,99253.41
2023-01-27T10:57:18.050Z,99255.94
2023-01-27T11:00:18.381Z,99259.28
2023-01-27T11:03:05.311Z,99255.34
2023-01-27T11:05:44.819Z,99248.94
2023-01-27T11:08:24.168Z,99242.53
2023-01-27T11:11:14.810Z,99251.19
2023-01-27T11:13:42.747Z,99247.41
2023-01-27T11:16:18.101Z,99256.22
2023-01-27T11:18:46.967Z,99246.56
2023-01-27T11:21:22.717Z,99241.28
2023-01-27T11:23:56.349Z,99235.97
2023-01-27T11:26:54.040Z,99242.38
2023-01-27T11:29:47.042Z,99226.63
2023-01-27T11:32:44.051Z,99226.63
2023-01-27T11:35:14.103Z,99234.00
2023-01-27T11:37:43.545Z,99224.22
2023-01-27T11:40:34.796Z,99228.28
2023-01-27T11:43:02.729Z,99209.97
2023-01-27T11:45:36.075Z,99203.44
2023-01-27T11:48:05.989Z,99212.09
2023-01-27T11:50:35.154Z,99193.38
2023-01-27T11:53:23.363Z,99201.72
2023-01-27T11:56:02.767Z,99187.34
2023-01-27T11:59:04.170Z,99180.78
2023-01-27T12:01:49.172Z,99178.13
2023-01-27T12:04:38.947Z,99177.00
2023-01-27T12:07:11.431Z,99180.25
2023-01-27T12:09:40.553Z,99176.06
2023-01-27T12:12:12.584Z,99163.78
2023-01-27T12:14:41.190Z,99171.34
2023-01-27T12:17:09.079Z,99178.31
2023-01-27T12:19:43.265Z,99160.03
2023-01-27T12:22:16.032Z,99151.22
2023-01-27T12:24:48.141Z,99141.75
2023-01-27T12:27:27.868Z,99118.84
2023-01-27T12:30:04.248Z,99107.84
2023-01-27T12:32:42.834Z,99102.53
2023-01-27T12:35:37.057Z,99136.69
2023-01-27T12:38:25.021Z,99131.94
2023-01-27T12:41:08.410Z,99138.78
2023-01-27T12:43:53.338Z,99159.59
2023-01-27T12:46:23.246Z,99144.66
2023-01-27T12:48:52.425Z,99154.44
2023-01-27T12:51:21.471Z,99145.78
2023-01-27T12:53:50.256Z,99132.00
2023-01-27T12:56:22.762Z,99119.97
2023-01-27T12:58:59.909Z,99142.03
2023-01-27T13:01:36.763Z,99135.47
2023-01-27T13:04:15.808Z,99135.88
2023-01-27T13:06:51.788Z,99131.41
2023-01-27T13:09:31.322Z,99137.41
2023-01-27T13:12:00.963Z,99121.34
2023-01-27T13:14:30.573Z,99136.56
2023-01-27T13:17:02.669Z,99119.53
2023-01-27T13:19:43.103Z,99131.41
2023-01-27T13:22:16.228Z,99117.31
2023-01-27T13:24:44.248Z,99097.22
2023-01-27T13:27:15.162Z,99101.25
2023-01-27T13:29:43.343Z,99096.63
2023-01-27T13:32:24.145Z,99119.22
2023-01-27T13:35:26.441Z,99115.44
2023-01-27T13:38:05.345Z,99118.53
2023-01-27T13:40:43.928Z,99142.41
2023-01-27T13:43:25.693Z,99131.09
2023-01-27T13:46:06.800Z,99151.09
2023-01-27T13:48:59.066Z,99148.16
2023-01-27T13:51:29.727Z,99142.56
2023-01-27T13:54:04.516Z,99167.81
2023-01-27T13:56:53.548Z,99172.28
2023-01-27T13:59:33.671Z,99163.50
2023-01-27T14:02:13.723Z,99154.84
2023-01-27T14:04:59.756Z,99157.34
2023-01-27T14:07:34.398Z,99166.44
2023-01-27T14:10:20.442Z,99167.25
2023-01-27T14:13:15.519Z,99151.50
2023-01-27T14:15:57.663Z,99157.63
2023-01-27T14:18:36.534Z,99168.94
2023-01-27T14:21:08.395Z,99167.97
2023-01-27T14:24:01.763Z,99149.25
2023-01-27T14:26:48.742Z,99156.22
2023-01-27T14:29:27.903Z,99135.84
2023-01-27T14:32:05.124Z,99145.34
2023-01-27T14:34:48.674Z,99153.31
2023-01-27T14:37:29.089Z,99153.16
2023-01-27T14:40:24.568Z,99152.19
2023-01-27T14:43:11.291Z,99156.38
2023-01-27T14:46:08.389Z,99167.13
2023-01-27T14:48:36.192Z,99168.94
2023-01-27T14:51:27.163Z,99169.63
2023-01-27T14:54:06.931Z,99164.47
2023-01-27T14:56:37.849Z,99162.50
2023-01-27T14:59:30.492Z,99157.19
2023-01-27T15:02:20.957Z,99166.28
2023-01-27T15:04:56.600Z,99172.97
2023-01-27T15:07:31.567Z,99167.81
2023-01-27T15:10:20.451Z,99149.25
2023-01-27T15:13:12.207Z,99149.69
2023-01-27T15:16:15.277Z,99154.84
2023-01-27T15:19:27.072Z,99155.25
2023-01-27T15:22:13.423Z,99142.25
2023-01-27T15:25:02.982Z,99124.69
2023-01-27T15:27:30.782Z,99125.81
2023-01-27T15:30:06.545Z,99091.47
2023-01-27T15:32:37.906Z,99092.31
2023-01-27T15:35:31.835Z,99105.41
2023-01-27T15:38:05.642Z,99111.72
2023-01-27T15:41:12.320Z,99128.31
2023-01-27T15:43:44.525Z,99122.31
2023-01-27T15:46:29.199Z,99136.13
2023-01-27T15:48:57.398Z,99116.56
2023-01-27T15:51:25.308Z,99109.44
2023-01-27T15:53:58.037Z,99101.34
2023-01-27T15:56:47.169Z,99092.97
2023-01-27T15:59:24.271Z,99098.00
2023-01-27T16:02:01.629Z,99088.06
2023-01-27T16:04:32.240Z,99101.19
2023-01-27T16:07:05.027Z,99087.22
2023-01-27T16:09:38.626Z,99094.06
2023-01-27T16:12:52.999Z,99095.88
2023-01-27T16:15:33.810Z,99101.47
2023-01-27T16:18:07.686Z,99089.34
2023-01-27T16:20:57.103Z,99094.66
2023-01-27T16:23:39.678Z,99090.47
2023-01-27T16:26:36.741Z,99104.00
2023-01-27T16:29:18.746Z,99111.13
2023-01-27T16:31:53.757Z,99112.25
2023-01-27T16:34:28.395Z,99099.13
2023-01-27T16:37:18.410Z,99104.59
2023-01-27T16:40:11.732Z,99116.19
2023-01-27T16:42:46.560Z,99104.88
2023-01-27T16:45:26.585Z,99129.59
2023-01-27T16:48:07.448Z,99126.09
2023-01-27T16:50:39.729Z,99123.44
2023-01-27T16:53:21.427Z,99131.41
2023-01-27T16:56:00.661Z,99138.38
2023-01-27T16:58:39.769Z,99146.19
2023-01-27T17:01:40.555Z,99154.84
2023-01-27T17:04:19.502Z,99172.44
2023-01-27T17:06:49.086Z,99162.66
2023-01-27T17:09:21.958Z,99150.22
2023-01-27T17:11:49.962Z,99144.91
2023-01-27T17:14:30.438Z,99154.69
2023-01-27T17:17:03.447Z,99148.56
2023-01-27T17:19:35.287Z,99153.56
2023-01-27T17:22:18.799Z,99159.84
2023-01-27T17:24:51.260Z,99156.38
2023-01-27T17:27:27.423Z,99158.03
2023-01-27T17:30:23.182Z,99162.09
2023-01-27T17:33:01.011Z,99162.09
2023-01-27T17:35:33.986Z,99169.09
2023-01-27T17:38:05.640Z,99164.63
2023-01-27T17:40:36.592Z,99167.53
2023-01-27T17:43:25.318Z,99168.50
2023-01-27T17:46:14.769Z,99157.06
2023-01-27T17:48:50.314Z,99154.41
2023-01-27T17:51:41.150Z,99162.22
2023-01-27T17:54:30.615Z,99158.88
2023-01-27T17:57:05.089Z,99167.81
2023-01-27T17:59:32.975Z,99167.81
2023-01-27T18:02:05.327Z,99173.97
2023-01-27T18:04:40.457Z,99172.00
2023-01-27T18:07:09.595Z,99188.75
2023-01-27T18:09:46.896Z,99186.09
2023-01-27T18:12:32.336Z,99190.72
2023-01-27T18:15:20.396Z,99180.94
2023-01-27T18:18:01.498Z,99183.88
2023-01-27T18:20:30.246Z,99185.41
2023-01-27T18:22:58.201Z,99197.00
2023-01-27T18:25:25.931Z,99190.84
2023-01-27T18:27:54.617Z,99195.47
2023-01-27T18:30:22.747Z,99196.16
2023-01-27T18:32:59.971Z,99196.16
2023-01-27T18:35:29.852Z,99183.03
2023-01-27T18:38:05.582Z,99193.50
2023-01-27T18:40:34.817Z,99194.50
2023-01-27T18:43:04.192Z,99190.00
2023-01-27T18:45:32.160Z,99185.53
2023-01-27T18:48:00.220Z,99199.78
2023-01-27T18:50:28.778Z,99193.25
2023-01-27T18:52:56.709Z,99202.19
2023-01-27T18:55:28.896Z,99205.13
2023-01-27T18:57:57.942Z,99215.44
2023-01-27T19:00:28.308Z,99203.16
2023-01-27T19:02:59.379Z,99206.66
2023-01-27T19:05:32.180Z,99208.47
2023-01-27T19:07:59.992Z,99218.25
2023-01-27T19:10:29.912Z,99224.38
2023-01-27T19:12:59.385Z,99235.69
2023-01-27T19:15:28.537Z,99230.53
2023-01-27T19:17:57.022Z,99231.22
2023-01-27T19:20:26.876Z,99233.19
2023-01-27T19:22:54.895Z,99241.00
2023-01-27T19:25:23.050Z,99243.63
2023-01-27T19:27:52.989Z,99240.00
2023-01-27T19:30:24.576Z,99240.56
2023-01-27T19:32:53.957Z,99225.78
2023-01-27T19:35:23.201Z,99223.53
2023-01-27T19:37:51.010Z,99237.78
2023-01-27T19:40:20.309Z,99248.09
2023-01-27T19:42:48.489Z,99247.13
2023-01-27T19:45:17.372Z,99253.97
2023-01-27T19:47:47.468Z,99240.84
2023-01-27T19:50:26.916Z,99253.16
2023-01-27T19:52:54.791Z,99261.09
2023-01-27T19:55:22.764Z,99255.91
2023-01-27T19:57:51.201Z,99247.41
2023-01-27T20:00:30.644Z,99251.88
2023-01-27T20:02:58.590Z,99262.47
2023-01-27T20:05:27.192Z,99259.81
2023-01-27T20:07:56.083Z,99267.66
2023-01-27T20:10:25.963Z,99272.13
2023-01-27T20:13:06.951Z,99266.81
2023-01-27T20:15:41.399Z,99265.00
2023-01-27T20:18:10.156Z,99268.63
2023-01-27T20:20:37.933Z,99267.66
2023-01-27T20:23:05.875Z,99270.28
2023-01-27T20:25:34.596Z,99274.22
2023-01-27T20:28:02.447Z,99265.56
2023-01-27T20:30:34.277Z,99262.91
2023-01-27T20:33:02.941Z,99261.94
2023-01-27T20:35:30.864Z,99255.09
2023-01-27T20:37:58.757Z,99257.88
2023-01-27T20:40:28.244Z,99270.88
2023-01-27T20:42:56.245Z,99261.22
2023-01-27T20:45:24.043Z,99258.88
2023-01-27T20:47:52.632Z,99251.44
2023-01-27T20:50:20.822Z,99253.69
2023-01-27T20:52:51.798Z,99264.41
2023-01-27T20:55:19.849Z,99251.44
2023-01-27T20:57:48.083Z,99262.75
2023-01-27T21:00:17.307Z,99254.94
2023-01-27T21:02:45.108Z,99254.78
2023-01-27T21:05:13.470Z,99258.41
2023-01-27T21:07:42.894Z,99260.94
2023-01-27T21:10:11.324Z,99245.00
2023-01-27T21:12:39.346Z,99239.16
2023-01-27T21:15:10.177Z,99250.47
2023-01-27T21:17:38.051Z,99247.66
2023-01-27T21:20:06.427Z,99259.41
2023-01-27T21:22:34.849Z,99246.41
2023-01-27T21:25:23.846Z,99258.16
2023-01-27T21:27:51.638Z,99245.31
2023-01-27T21:30:19.552Z,99249.78
2023-01-27T21:32:47.381Z,99242.91
2023-01-27T21:35:15.511Z,99228.94
2023-01-27T21:37:44.165Z,99225.19
2023-01-27T21:40:27.941Z,99232.31
2023-01-27T21:43:14.078Z,99233.03
2023-01-27T21:45:41.823Z,99233.88
2023-01-27T21:48:09.592Z,99235.94
2023-01-27T21:50:37.536Z,99233.13
2023-01-27T21:53:09.841Z,99233.28
2023-01-27T21:55:37.782Z,99232.59
2023-01-27T21:58:05.556Z,99243.88
2023-01-27T22:00:33.471Z,99232.59
2023-01-27T22:03:03.288Z,99237.75
2023-01-27T22:05:41.252Z,99235.78
2023-01-27T22:08:24.577Z,99235.53
2023-01-27T22:10:52.364Z,99248.78
2023-01-27T22:13:20.211Z,99248.94
2023-01-27T22:15:51.263Z,99255.06
2023-01-27T22:18:19.072Z,99243.63
2023-01-27T22:20:46.929Z,99262.75
2023-01-27T22:23:14.741Z,99254.09
2023-01-27T22:25:50.691Z,99261.63
2023-01-27T22:28:19.128Z,99259.97
2023-01-27T22:30:47.055Z,99255.78
2023-01-27T22:33:14.899Z,99252.97
2023-01-27T22:35:42.893Z,99258.44
2023-01-27T22:38:10.651Z,99263.88
2023-01-27T22:40:38.526Z,99274.34
2023-01-27T22:43:09.787Z,99267.50
2023-01-27T22:45:40.773Z,99281.88
2023-01-27T22:48:09.162Z,99277.69
2023-01-27T22:50:37.416Z,99274.06
2023-01-27T22:53:05.991Z,99283.13
2023-01-27T22:55:33.763Z,99283.56
2023-01-27T22:58:01.566Z,99288.72
2023-01-27T23:00:29.350Z,99293.03
2023-01-27T23:02:57.167Z,99296.66
2023-01-27T23:05:25.072Z,99292.34
2023-01-27T23:07:52.761Z,99299.19
2023-01-27T23:10:20.586Z,99304.47
2023-01-27T23:12:48.336Z,99309.50
2023-01-27T23:15:16.614Z,99297.81
2023-01-27T23:17:44.515Z,99300.31
2023-01-27T23:20:12.843Z,99293.34
2023-01-27T23:22:40.769Z,99297.38
2023-01-27T23:25:09.561Z,99304.50
2023-01-27T23:27:37.256Z,99304.66
2023-01-27T23:30:09.504Z,99302.13
2023-01-27T23:32:40.672Z,99309.25
2023-01-27T23:35:09.250Z,99304.94
2023-01-27T23:37:36.984Z,99309.50
2023-01-27T23:40:05.128Z,99304.94
2023-01-27T23:42:33.169Z,99313.72
2023-01-27T23:45:00.905Z,99301.69
2023-01-27T23:47:28.658Z,99308.13
2023-01-27T23:49:56.581Z,99304.75
2023-01-27T23:52:24.532Z,99305.88
2023-01-27T23:54:52.351Z,99289.69
2023-01-27T23:57:20.109Z,99307.97
2023-01-27T23:59:47.969Z,99298.06
